Time;durP1;ratioP1;P1;durP2;ratioP2;P2;SDS_P1;SDS_P2;PMS_P1;PMS_P2;Temp;Humidity;BMP_temperature;BMP_pressure;BME280_temperature;BME280_humidity;BME280_pressure;Samples;Min_cycle;Max_cycle;Signal;HPM_P1;HPM_P2
2023/01/07 00:00:27;;;;;;;1.73;0.90;;;15.70;75.00;;;;;;10388477;28;20404;-63
2023/01/07 00:05:28;;;;;;;2.35;0.82;;;15.70;75.00;;;;;;10404680;28;20500;-63
2023/01/07 00:10:29;;;;;;;1.30;0.75;;;15.70;75.00;;;;;;10404509;28;20116;-61
2023/01/07 00:15:29;;;;;;;1.23;0.98;;;15.70;75.10;;;;;;10405636;28;20053;-62
2023/01/07 00:20:30;;;;;;;2.58;0.80;;;15.70;75.00;;;;;;10404566;28;20479;-63
2023/01/07 00:25:31;;;;;;;0.80;0.60;;;15.70;75.00;;;;;;10404843;28;20484;-61
2023/01/07 00:30:31;;;;;;;1.42;0.50;;;15.70;75.00;;;;;;10404296;28;20128;-62
2023/01/07 00:35:35;;;;;;;1.00;0.73;;;15.70;75.00;;;;;;10420696;28;20111;-62
2023/01/07 00:40:36;;;;;;;1.08;0.60;;;15.70;75.00;;;;;;10404135;28;20087;-62
2023/01/07 00:45:37;;;;;;;1.05;0.63;;;15.70;75.00;;;;;;10420273;28;20041;-61
2023/01/07 00:50:38;;;;;;;1.50;0.80;;;15.70;75.00;;;;;;10403633;28;20108;-63
2023/01/07 00:55:39;;;;;;;1.27;0.75;;;15.70;75.00;;;;;;10419907;28;20021;-63
2023/01/07 01:00:40;;;;;;;0.77;0.75;;;15.60;75.00;;;;;;10408023;28;20032;-61
2023/01/07 01:05:41;;;;;;;0.80;0.70;;;15.70;75.00;;;;;;10412921;28;20449;-61
2023/01/07 01:10:42;;;;;;;1.15;0.75;;;15.70;75.00;;;;;;10412969;28;20017;-63
2023/01/07 01:15:45;;;;;;;2.90;0.93;;;15.70;75.00;;;;;;10410990;28;20043;-60
2023/01/07 01:20:45;;;;;;;2.53;0.77;;;15.70;75.00;;;;;;10427418;28;20390;-61
2023/01/07 01:25:46;;;;;;;1.08;0.65;;;15.60;75.00;;;;;;10401500;28;20053;-62
2023/01/07 01:30:54;;;;;;;1.35;1.05;;;15.60;74.90;;;;;;10412079;28;20480;-63
2023/01/07 01:35:55;;;;;;;1.08;0.60;;;15.60;74.90;;;;;;10410451;28;20671;-63
2023/01/07 01:40:56;;;;;;;0.82;0.43;;;15.60;74.90;;;;;;10410203;28;20022;-63
2023/01/07 01:46:19;;;;;;;0.90;0.55;;;15.60;75.00;;;;;;10409789;28;20113;-61
2023/01/07 01:51:25;;;;;;;1.25;0.70;;;15.60;74.90;;;;;;10395670;28;20018;-60
2023/01/07 01:56:32;;;;;;;0.93;0.68;;;15.60;74.90;;;;;;10393235;28;20022;-61
2023/01/07 02:01:34;;;;;;;1.42;0.80;;;15.60;74.90;;;;;;10426067;28;20095;-63
2023/01/07 02:06:41;;;;;;;1.38;0.70;;;15.60;74.90;;;;;;10409394;28;20095;-62
2023/01/07 02:12:15;;;;;;;0.95;0.50;;;15.60;74.90;;;;;;10408766;28;20013;-61
2023/01/07 02:17:38;;;;;;;0.70;0.60;;;15.60;74.90;;;;;;10398983;28;20130;-63
2023/01/07 02:23:19;;;;;;;1.70;0.77;;;15.60;75.00;;;;;;10408625;28;20057;-61
2023/01/07 02:28:52;;;;;;;0.88;0.68;;;15.60;74.90;;;;;;10415273;28;20025;-63
2023/01/07 02:34:39;;;;;;;1.42;0.70;;;15.60;74.90;;;;;;10408095;28;20072;-61
2023/01/07 02:40:06;;;;;;;1.52;0.70;;;15.60;74.90;;;;;;10408820;28;20119;-63
2023/01/07 02:45:27;;;;;;;0.80;0.75;;;15.60;74.90;;;;;;10408560;28;20380;-63
2023/01/07 02:50:28;;;;;;;1.30;0.80;;;15.60;74.90;;;;;;10407606;28;20556;-62
2023/01/07 02:55:42;;;;;;;1.27;0.68;;;15.60;74.90;;;;;;10407216;28;20020;-63
2023/01/07 03:01:08;;;;;;;0.90;0.70;;;15.60;74.90;;;;;;10406864;28;20029;-62
2023/01/07 03:07:17;;;;;;;1.77;0.77;;;15.60;74.90;;;;;;10408156;28;20115;-62
2023/01/07 03:12:50;;;;;;;1.27;0.70;;;15.60;74.90;;;;;;10407180;28;20041;-62
2023/01/07 03:18:16;;;;;;;1.77;1.17;;;15.60;74.80;;;;;;10421132;28;20425;-63
2023/01/07 03:23:21;;;;;;;0.98;0.55;;;15.60;74.80;;;;;;10406481;28;20056;-62
2023/01/07 03:28:29;;;;;;;1.42;0.60;;;15.60;74.80;;;;;;10413469;28;20163;-63
2023/01/07 03:33:49;;;;;;;0.63;0.40;;;15.60;74.80;;;;;;10406081;28;20392;-60
2023/01/07 03:38:53;;;;;;;1.65;1.25;;;15.60;74.80;;;;;;10421795;28;20427;-61
2023/01/07 03:43:53;;;;;;;1.50;0.70;;;15.60;74.80;;;;;;10405287;28;20034;-63
2023/01/07 03:48:54;;;;;;;1.27;1.00;;;15.60;74.80;;;;;;10405449;28;20501;-63
2023/01/07 03:53:55;;;;;;;1.40;0.60;;;15.60;74.80;;;;;;10406384;28;20021;-63
2023/01/07 03:58:55;;;;;;;0.93;0.50;;;15.60;74.80;;;;;;10421569;28;20025;-64
2023/01/07 04:03:56;;;;;;;1.25;0.80;;;15.60;74.80;;;;;;10404563;28;20073;-63
2023/01/07 04:08:57;;;;;;;1.52;0.80;;;15.60;74.80;;;;;;10404625;28;20076;-63
2023/01/07 04:13:59;;;;;;;1.70;0.40;;;15.60;74.80;;;;;;10404520;28;20013;-63
2023/01/07 04:19:00;;;;;;;1.08;0.60;;;15.60;74.80;;;;;;10404418;28;20017;-63
2023/01/07 04:24:00;;;;;;;0.30;0.30;;;15.60;74.80;;;;;;10420731;28;20420;-63
2023/01/07 04:29:01;;;;;;;1.00;0.70;;;15.60;74.80;;;;;;10428096;28;20104;-65
2023/01/07 04:34:02;;;;;;;1.45;0.77;;;15.60;74.80;;;;;;10405254;28;20053;-60
2023/01/07 04:39:03;;;;;;;1.73;0.80;;;15.60;74.70;;;;;;10403778;28;20021;-63
2023/01/07 04:44:04;;;;;;;1.00;0.60;;;15.60;74.70;;;;;;10420542;28;20068;-62
2023/01/07 04:49:05;;;;;;;0.95;0.50;;;15.60;74.70;;;;;;10420359;28;20057;-63
2023/01/07 04:54:05;;;;;;;0.60;0.40;;;15.60;74.70;;;;;;10420808;28;20518;-62
2023/01/07 04:59:06;;;;;;;0.82;0.47;;;15.60;74.70;;;;;;10420137;28;20095;-60
2023/01/07 05:04:07;;;;;;;1.20;0.60;;;15.60;74.70;;;;;;10402923;28;20121;-63
2023/01/07 05:09:07;;;;;;;1.08;0.55;;;15.60;74.70;;;;;;10401951;28;20525;-62
2023/01/07 05:14:11;;;;;;;1.23;0.70;;;15.60;74.70;;;;;;10399054;28;20104;-62
2023/01/07 05:19:11;;;;;;;1.02;0.45;;;15.60;74.70;;;;;;10401976;28;20396;-63
2023/01/07 05:24:12;;;;;;;0.68;0.57;;;15.60;74.70;;;;;;10402130;28;20045;-63
2023/01/07 05:29:13;;;;;;;1.00;0.50;;;15.60;74.70;;;;;;10417968;28;20476;-62
2023/01/07 05:34:13;;;;;;;0.60;0.50;;;15.60;74.70;;;;;;10403070;28;20097;-63
2023/01/07 05:39:14;;;;;;;1.60;0.60;;;15.60;74.70;;;;;;10419023;28;20113;-63
2023/01/07 05:44:15;;;;;;;1.02;0.70;;;15.60;74.70;;;;;;10404155;28;20112;-63
2023/01/07 05:49:15;;;;;;;1.45;0.90;;;15.60;74.70;;;;;;10409371;28;20104;-63
2023/01/07 05:54:16;;;;;;;1.45;1.30;;;15.60;74.70;;;;;;10409662;28;20073;-62
2023/01/07 05:59:17;;;;;;;3.47;2.70;;;15.60;74.70;;;;;;10409063;28;20156;-65
2023/01/07 06:04:17;;;;;;;4.30;3.90;;;15.70;74.50;;;;;;10406925;28;20193;-55
2023/01/07 06:09:18;;;;;;;12.80;11.90;;;15.80;74.50;;;;;;10407316;28;20033;-60
2023/01/07 06:14:19;;;;;;;13.07;12.00;;;15.90;76.30;;;;;;10406341;28;20024;-62
2023/01/07 06:19:21;;;;;;;13.20;12.10;;;16.00;77.10;;;;;;10405933;28;20042;-61
2023/01/07 06:24:22;;;;;;;9.43;8.52;;;16.10;77.60;;;;;;10406636;28;20041;-58
2023/01/07 06:29:22;;;;;;;10.75;9.65;;;16.00;75.80;;;;;;10411440;28;20037;-60
2023/01/07 06:34:23;;;;;;;20.80;11.98;;;15.90;75.50;;;;;;10404472;28;20057;-58
2023/01/07 06:39:24;;;;;;;16.73;10.93;;;15.90;76.30;;;;;;10405667;28;20383;-59
2023/01/07 06:44:25;;;;;;;13.05;11.48;;;15.90;76.40;;;;;;10405431;28;20310;-58
2023/01/07 06:49:25;;;;;;;17.38;11.98;;;15.90;76.80;;;;;;10420756;28;20264;-58
2023/01/07 06:54:26;;;;;;;15.10;10.73;;;15.90;76.80;;;;;;10406221;28;20025;-60
2023/01/07 06:59:27;;;;;;;18.75;10.85;;;15.90;76.70;;;;;;10407208;28;20094;-58
2023/01/07 07:04:27;;;;;;;15.40;10.43;;;16.00;77.10;;;;;;10406768;28;20037;-60
2023/01/07 07:09:28;;;;;;;22.05;11.73;;;15.90;77.00;;;;;;10407087;28;20788;-61
2023/01/07 07:14:29;;;;;;;24.30;11.65;;;15.90;77.30;;;;;;10408071;28;20059;-60
2023/01/07 07:19:29;;;;;;;12.45;9.60;;;15.90;77.30;;;;;;10407760;28;20125;-59
2023/01/07 07:24:30;;;;;;;14.90;10.00;;;15.90;77.30;;;;;;10407758;28;20119;-59
2023/01/07 07:29:31;;;;;;;20.40;9.35;;;15.90;76.80;;;;;;10370354;28;20037;-55
2023/01/07 07:34:35;;;;;;;21.90;10.20;;;15.90;76.30;;;;;;10386142;28;20025;-61
2023/01/07 07:39:36;;;;;;;17.52;8.32;;;15.90;76.50;;;;;;10423987;28;20025;-58
2023/01/07 07:44:37;;;;;;;17.35;8.40;;;15.90;76.70;;;;;;10405272;28;20037;-57
2023/01/07 07:49:38;;;;;;;17.05;7.97;;;15.90;77.00;;;;;;10385265;28;20025;-57
2023/01/07 07:54:38;;;;;;;17.98;9.20;;;15.90;76.80;;;;;;10372829;28;20057;-60
2023/01/07 07:59:39;;;;;;;19.40;9.55;;;15.90;76.80;;;;;;10384302;28;20480;-61
2023/01/07 08:04:40;;;;;;;29.10;9.25;;;15.90;76.70;;;;;;10411571;28;20064;-56
2023/01/07 08:09:41;;;;;;;17.05;7.47;;;15.90;76.80;;;;;;10426931;28;20480;-59
2023/01/07 08:14:41;;;;;;;19.48;8.20;;;15.90;76.80;;;;;;10412674;28;20175;-59
2023/01/07 08:19:42;;;;;;;26.77;7.18;;;15.90;77.10;;;;;;10378520;28;20104;-57
2023/01/07 08:24:42;;;;;;;29.10;7.15;;;16.00;76.80;;;;;;10383180;28;20129;-55
2023/01/07 08:29:43;;;;;;;20.90;6.65;;;16.00;76.60;;;;;;10397495;28;20025;-57
2023/01/07 08:34:44;;;;;;;17.90;6.18;;;15.90;76.00;;;;;;10388671;28;20396;-56
2023/01/07 08:39:45;;;;;;;19.98;5.85;;;15.90;76.20;;;;;;10429172;28;20079;-59
2023/01/07 08:44:45;;;;;;;12.30;5.68;;;15.80;76.20;;;;;;10401613;28;20087;-58
2023/01/07 08:49:46;;;;;;;14.70;6.00;;;15.80;76.00;;;;;;10415641;28;20029;-57
2023/01/07 08:54:48;;;;;;;14.60;4.95;;;15.80;76.10;;;;;;10382396;28;20049;-55
2023/01/07 08:59:49;;;;;;;12.55;4.22;;;15.70;76.00;;;;;;10394651;28;20481;-56
2023/01/07 09:04:50;;;;;;;8.25;3.85;;;15.80;76.00;;;;;;10400275;28;20375;-58
2023/01/07 09:09:50;;;;;;;8.85;4.38;;;15.70;75.80;;;;;;10397008;28;20092;-58
2023/01/07 09:14:52;;;;;;;10.75;3.78;;;15.70;75.70;;;;;;10402054;28;20045;-56
2023/01/07 09:19:53;;;;;;;10.40;3.83;;;15.70;75.70;;;;;;10400071;28;20053;-62
2023/01/07 09:24:54;;;;;;;9.13;3.47;;;15.70;75.60;;;;;;10415194;28;20029;-59
2023/01/07 09:29:57;;;;;;;5.68;2.83;;;15.70;75.50;;;;;;10407760;28;20041;-56
2023/01/07 09:34:57;;;;;;;6.20;3.00;;;15.70;75.40;;;;;;10405729;28;20632;-59
2023/01/07 09:40:00;;;;;;;6.43;2.78;;;15.70;75.40;;;;;;10407247;28;20061;-60
2023/01/07 09:45:23;;;;;;;6.47;2.80;;;15.70;75.40;;;;;;10407273;28;20037;-60
2023/01/07 09:50:38;;;;;;;6.93;2.25;;;15.70;75.30;;;;;;10423278;28;20437;-60
2023/01/07 09:55:41;;;;;;;4.15;2.50;;;15.70;75.30;;;;;;10402303;28;20022;-59
2023/01/07 10:01:32;;;;;;;5.45;2.17;;;15.70;75.20;;;;;;10387913;28;20083;-57
2023/01/07 10:06:55;;;;;;;6.75;1.58;;;15.70;75.10;;;;;;10371564;28;20022;-58
2023/01/07 10:12:21;;;;;;;10.30;2.78;;;15.70;74.90;;;;;;10381305;28;20072;-58
2023/01/07 10:18:01;;;;;;;7.97;1.98;;;15.70;74.90;;;;;;10429488;28;20018;-58
2023/01/07 10:23:14;;;;;;;7.07;2.65;;;16.00;74.80;;;;;;10391045;28;20041;-62
2023/01/07 10:29:07;;;;;;;10.13;3.17;;;16.20;74.70;;;;;;10416259;28;20543;-60
2023/01/07 10:34:24;;;;;;;6.90;2.58;;;16.40;74.00;;;;;;10403576;28;20888;-55
2023/01/07 10:39:40;;;;;;;14.70;2.90;;;16.60;73.20;;;;;;10384579;28;20022;-57
2023/01/07 10:45:04;;;;;;;11.25;3.13;;;16.30;73.70;;;;;;10366811;28;20678;-58
2023/01/07 10:50:33;;;;;;;12.30;2.22;;;16.10;74.20;;;;;;10402762;28;20543;-58
2023/01/07 10:56:08;;;;;;;7.82;2.20;;;16.10;75.20;;;;;;10391280;28;20014;-58
2023/01/07 11:01:27;;;;;;;11.73;3.58;;;16.00;75.80;;;;;;10374213;28;20030;-57
2023/01/07 11:06:38;;;;;;;9.27;3.78;;;16.10;75.30;;;;;;10386768;28;20448;-59
2023/01/07 11:11:41;;;;;;;7.15;2.35;;;16.20;75.00;;;;;;10394408;28;20021;-57
2023/01/07 11:17:16;;;;;;;9.95;2.55;;;16.20;75.20;;;;;;10390019;28;20018;-58
2023/01/07 11:22:26;;;;;;;8.73;2.45;;;16.30;75.10;;;;;;10391965;28;20057;-60
2023/01/07 11:27:33;;;;;;;9.55;2.25;;;16.20;75.20;;;;;;10398397;28;20036;-59
2023/01/07 11:32:39;;;;;;;9.02;2.13;;;16.30;75.10;;;;;;10394244;28;20033;-59
2023/01/07 11:37:44;;;;;;;8.02;2.33;;;16.30;75.20;;;;;;10402031;28;20014;-59
2023/01/07 11:43:16;;;;;;;16.90;2.72;;;16.20;75.70;;;;;;10404385;28;20034;-59
2023/01/07 11:48:23;;;;;;;6.82;1.83;;;16.20;76.00;;;;;;10395454;28;20029;-59
2023/01/07 11:53:44;;;;;;;15.32;2.33;;;16.30;75.40;;;;;;10420666;28;20021;-60
2023/01/07 11:58:51;;;;;;;11.25;2.63;;;16.20;75.70;;;;;;10405592;28;20028;-60
2023/01/07 12:03:54;;;;;;;9.98;2.72;;;16.30;75.70;;;;;;10419976;28;20535;-57
2023/01/07 12:09:34;;;;;;;17.13;2.35;;;16.40;75.80;;;;;;10393055;28;20018;-56
2023/01/07 12:14:37;;;;;;;13.18;2.63;;;16.40;75.50;;;;;;10394648;28;20512;-53
2023/01/07 12:20:02;;;;;;;11.70;2.72;;;16.50;75.30;;;;;;10391506;28;20116;-50
2023/01/07 12:25:21;;;;;;;19.20;2.28;;;16.50;75.20;;;;;;10412182;28;20126;-60
2023/01/07 12:30:40;;;;;;;13.85;2.67;;;16.50;75.20;;;;;;10408150;28;20018;-59
2023/01/07 12:35:44;;;;;;;21.30;2.77;;;16.50;75.20;;;;;;10415457;28;20117;-57
2023/01/07 12:40:51;;;;;;;11.73;2.35;;;16.50;74.80;;;;;;10429082;28;20295;-59
2023/01/07 12:46:10;;;;;;;18.27;3.47;;;16.50;75.00;;;;;;10426272;28;20038;-60
2023/01/07 12:51:31;;;;;;;19.08;2.95;;;16.50;75.20;;;;;;10395261;28;20055;-59
2023/01/07 12:56:43;;;;;;;23.10;3.67;;;16.50;75.20;;;;;;10403413;28;20021;-58
2023/01/07 13:02:15;;;;;;;30.90;4.75;;;16.40;75.30;;;;;;10417206;28;20039;-59
2023/01/07 13:08:18;;;;;;;15.05;3.40;;;16.40;75.00;;;;;;10415458;28;20402;-58
2023/01/07 13:13:36;;;;;;;17.63;3.47;;;16.30;74.70;;;;;;10358586;28;20029;-60
2023/01/07 13:18:37;;;;;;;22.10;3.28;;;16.30;74.50;;;;;;10381667;28;20026;-58
2023/01/07 13:24:27;;;;;;;14.95;3.17;;;16.30;74.40;;;;;;10374817;28;20042;-59
2023/01/07 13:30:14;;;;;;;10.37;2.70;;;16.30;74.10;;;;;;10400444;28;20511;-57
2023/01/07 13:35:49;;;;;;;10.30;2.83;;;16.20;73.90;;;;;;10387144;28;20366;-57
2023/01/07 13:41:55;;;;;;;11.90;2.75;;;16.20;73.70;;;;;;10401470;28;20017;-59
2023/01/07 13:46:56;;;;;;;12.45;2.80;;;16.10;73.80;;;;;;10408666;28;20330;-57
2023/01/07 13:52:15;;;;;;;8.98;2.10;;;16.10;73.90;;;;;;10405615;28;20010;-55
2023/01/07 13:57:30;;;;;;;11.43;4.00;;;16.10;74.00;;;;;;10405772;28;20047;-55
2023/01/07 14:02:56;;;;;;;9.38;1.70;;;16.10;74.00;;;;;;10396926;28;20452;-54
2023/01/07 14:08:01;;;;;;;5.93;2.22;;;16.10;74.20;;;;;;10387008;28;20422;-59
2023/01/07 14:13:32;;;;;;;6.10;2.13;;;16.10;74.00;;;;;;10400268;28;20489;-56
2023/01/07 14:18:56;;;;;;;12.50;1.85;;;16.00;74.00;;;;;;10385207;28;20029;-59
2023/01/07 14:24:24;;;;;;;7.35;1.67;;;16.00;73.50;;;;;;10394460;28;20457;-61
2023/01/07 14:29:42;;;;;;;7.90;1.75;;;16.10;73.60;;;;;;10392371;28;20005;-60
2023/01/07 14:34:57;;;;;;;8.52;2.20;;;16.30;74.10;;;;;;10379942;28;20366;-57
2023/01/07 14:39:58;;;;;;;8.05;2.17;;;16.40;73.80;;;;;;10427822;28;20021;-60
2023/01/07 14:45:00;;;;;;;13.27;4.20;;;16.30;73.20;;;;;;10404702;28;20040;-60
2023/01/07 14:50:50;;;;;;;23.27;2.50;;;16.20;73.70;;;;;;10414208;28;20017;-60
2023/01/07 14:56:38;;;;;;;14.15;2.20;;;16.20;74.40;;;;;;10401977;28;20676;-58
2023/01/07 15:02:16;;;;;;;10.32;2.22;;;16.20;74.00;;;;;;10379678;28;20052;-60
2023/01/07 15:07:25;;;;;;;12.00;2.47;;;16.10;74.00;;;;;;10385116;28;20108;-59
2023/01/07 15:17:50;;;;;;;12.57;2.45;;;16.20;75.00;;;;;;10392657;28;20022;-62
2023/01/07 15:23:32;;;;;;;13.35;2.70;;;16.30;74.10;;;;;;10387762;28;20037;-62
2023/01/07 15:28:55;;;;;;;11.90;2.22;;;16.30;74.50;;;;;;10386484;28;20018;-59
2023/01/07 15:34:10;;;;;;;29.95;3.63;;;16.20;74.20;;;;;;10419143;28;20040;-56
2023/01/07 15:39:27;;;;;;;20.48;4.32;;;16.20;74.50;;;;;;10415648;28;20014;-58
2023/01/07 15:44:37;;;;;;;10.00;2.78;;;16.20;74.60;;;;;;10380610;28;20424;-58
2023/01/07 15:49:38;;;;;;;15.57;3.65;;;16.20;74.80;;;;;;10388989;28;20018;-59
2023/01/07 15:54:39;;;;;;;11.32;3.47;;;16.20;74.80;;;;;;10367005;28;20034;-60
2023/01/07 15:59:47;;;;;;;12.07;2.30;;;16.20;74.80;;;;;;10364066;28;20101;-61
2023/01/07 16:04:52;;;;;;;6.03;1.85;;;16.20;74.80;;;;;;10408406;28;20288;-63
2023/01/07 16:09:55;;;;;;;10.93;2.47;;;16.10;74.70;;;;;;10388916;28;20075;-62
2023/01/07 16:14:56;;;;;;;10.55;2.58;;;16.10;74.80;;;;;;10378859;28;20069;-62
2023/01/07 16:20:18;;;;;;;6.15;2.22;;;16.10;74.70;;;;;;10395983;28;20129;-61
2023/01/07 16:25:30;;;;;;;10.63;3.38;;;16.10;74.30;;;;;;10395621;28;20037;-60
2023/01/07 16:30:33;;;;;;;7.97;1.77;;;16.10;73.80;;;;;;10376557;28;20104;-61
2023/01/07 16:35:36;;;;;;;8.52;2.65;;;16.10;72.80;;;;;;10403906;28;20104;-60
2023/01/07 16:40:38;;;;;;;7.53;2.00;;;16.10;73.10;;;;;;10408754;28;20102;-60
2023/01/07 16:45:40;;;;;;;4.90;1.92;;;16.10;72.70;;;;;;10400891;28;20040;-61
2023/01/07 16:50:42;;;;;;;19.25;2.97;;;16.10;72.10;;;;;;10415376;28;20017;-60
2023/01/07 16:56:15;;;;;;;5.70;2.25;;;16.40;77.10;;;;;;10412341;28;20030;-64
2023/01/07 17:01:32;;;;;;;10.65;2.88;;;16.50;77.40;;;;;;10400405;28;20508;-62
2023/01/07 17:06:39;;;;;;;7.90;2.63;;;16.50;77.10;;;;;;10398731;28;20354;-64
2023/01/07 17:11:40;;;;;;;11.50;2.65;;;16.40;76.60;;;;;;10394006;28;20045;-60
2023/01/07 17:16:41;;;;;;;15.45;2.70;;;16.40;73.70;;;;;;10398184;28;20536;-61
2023/01/07 17:21:43;;;;;;;15.23;2.28;;;16.30;74.40;;;;;;10414898;28;20049;-59
2023/01/07 17:26:44;;;;;;;12.25;2.60;;;16.30;75.10;;;;;;10411040;28;20048;-61
2023/01/07 17:31:45;;;;;;;9.13;2.28;;;16.20;75.40;;;;;;10363278;28;20477;-58
2023/01/07 17:36:46;;;;;;;8.25;2.55;;;16.20;75.40;;;;;;10369835;28;20021;-62
2023/01/07 17:47:20;;;;;;;7.45;2.35;;;16.20;75.40;;;;;;10409752;28;20046;-63
2023/01/07 17:52:21;;;;;;;7.20;2.10;;;16.10;75.30;;;;;;10424572;28;20025;-62
2023/01/07 17:57:22;;;;;;;8.15;1.98;;;16.00;75.40;;;;;;10417398;28;20041;-63
2023/01/07 18:02:28;;;;;;;10.75;2.83;;;16.00;75.30;;;;;;10424295;28;20152;-60
2023/01/07 18:07:29;;;;;;;18.40;2.50;;;16.00;75.30;;;;;;10409273;28;20060;-63
2023/01/07 18:12:29;;;;;;;8.15;1.90;;;16.00;75.20;;;;;;10405376;28;20101;-63
2023/01/07 18:17:30;;;;;;;6.45;1.80;;;16.00;75.20;;;;;;10401616;28;20079;-62
2023/01/07 18:22:31;;;;;;;6.93;2.05;;;16.10;75.30;;;;;;10411299;28;20133;-59
2023/01/07 18:27:33;;;;;;;9.48;2.15;;;16.10;75.40;;;;;;10396667;28;20056;-61
2023/01/07 18:32:34;;;;;;;6.45;1.30;;;16.10;75.40;;;;;;10385147;28;20022;-59
2023/01/07 18:37:36;;;;;;;8.30;1.77;;;16.10;75.30;;;;;;10421086;28;20112;-61
2023/01/07 18:42:37;;;;;;;4.53;1.50;;;16.10;75.40;;;;;;10403453;28;20033;-62
2023/01/07 18:47:41;;;;;;;6.40;1.90;;;16.00;75.30;;;;;;10419985;28;20070;-63
2023/01/07 18:52:43;;;;;;;4.47;1.77;;;16.00;75.40;;;;;;10397557;28;20385;-62
2023/01/07 18:57:45;;;;;;;9.30;2.08;;;15.90;75.30;;;;;;10395528;28;20131;-62
2023/01/07 19:02:50;;;;;;;11.15;2.05;;;15.90;75.00;;;;;;10391333;28;20065;-62
2023/01/07 19:07:51;;;;;;;6.63;1.73;;;16.00;75.10;;;;;;10383718;28;20029;-63
2023/01/07 19:12:52;;;;;;;5.28;1.48;;;16.00;74.90;;;;;;10389767;28;20016;-64
2023/01/07 19:17:53;;;;;;;8.23;1.75;;;16.00;74.90;;;;;;10434752;28;20491;-63
2023/01/07 19:22:58;;;;;;;6.45;1.63;;;16.00;74.90;;;;;;10402414;28;20099;-61
2023/01/07 19:27:59;;;;;;;4.20;1.40;;;16.00;74.70;;;;;;10411316;28;20021;-65
2023/01/07 19:33:00;;;;;;;8.85;1.60;;;16.00;74.60;;;;;;10402812;28;20064;-58
2023/01/07 19:38:00;;;;;;;4.38;1.83;;;16.00;74.60;;;;;;10382619;28;20116;-58
2023/01/07 19:43:01;;;;;;;5.80;3.08;;;16.00;74.60;;;;;;10401001;28;20018;-60
2023/01/07 19:48:02;;;;;;;14.80;9.45;;;16.00;75.00;;;;;;10400674;28;20057;-62
2023/01/07 19:53:03;;;;;;;9.25;8.35;;;16.10;75.50;;;;;;10401376;28;20041;-61
2023/01/07 19:58:03;;;;;;;12.23;10.02;;;16.30;75.50;;;;;;10400810;28;20034;-60
2023/01/07 20:03:04;;;;;;;10.93;9.40;;;16.30;75.40;;;;;;10385013;28;20080;-62
2023/01/07 20:08:04;;;;;;;11.38;10.32;;;16.30;75.40;;;;;;10401088;28;20184;-66
2023/01/07 20:13:05;;;;;;;11.88;10.73;;;16.30;75.30;;;;;;10401136;28;20124;-58
2023/01/07 20:18:06;;;;;;;13.20;12.00;;;16.20;75.30;;;;;;10399457;28;20110;-56
2023/01/07 20:23:06;;;;;;;11.80;10.80;;;16.20;75.50;;;;;;10399437;28;20088;-60
2023/01/07 20:28:07;;;;;;;12.43;11.25;;;16.20;74.90;;;;;;10411479;28;20132;-60
2023/01/07 20:33:09;;;;;;;12.70;11.60;;;16.00;74.60;;;;;;10420971;28;20049;-61
2023/01/07 20:38:10;;;;;;;12.18;11.18;;;16.00;75.00;;;;;;10402808;28;20032;-60
2023/01/07 20:43:11;;;;;;;13.20;12.05;;;15.90;75.00;;;;;;10404060;28;20735;-61
2023/01/07 20:48:13;;;;;;;12.65;11.25;;;15.90;75.00;;;;;;10403314;28;20018;-59
2023/01/07 20:53:14;;;;;;;12.23;11.07;;;15.90;75.10;;;;;;10401756;28;20065;-60
2023/01/07 20:58:15;;;;;;;12.73;11.60;;;15.90;75.00;;;;;;10402911;28;20105;-59
2023/01/07 21:03:15;;;;;;;11.75;10.85;;;15.80;75.00;;;;;;10402872;28;20117;-61
2023/01/07 21:08:16;;;;;;;12.70;11.50;;;15.80;75.00;;;;;;10405119;28;20501;-61
2023/01/07 21:13:17;;;;;;;11.65;10.70;;;15.80;74.90;;;;;;10403253;28;20669;-60
2023/01/07 21:18:19;;;;;;;12.13;11.13;;;15.80;74.90;;;;;;10425673;28;20025;-61
2023/01/07 21:23:19;;;;;;;11.88;10.77;;;15.80;74.80;;;;;;10410872;28;20045;-60
2023/01/07 21:28:20;;;;;;;10.88;10.00;;;15.80;74.80;;;;;;10417400;28;20587;-59
2023/01/07 21:33:21;;;;;;;11.32;10.30;;;15.80;74.80;;;;;;10411086;28;20105;-60
2023/01/07 21:38:22;;;;;;;10.70;9.85;;;15.80;74.70;;;;;;10410506;28;20029;-62
2023/01/07 21:43:22;;;;;;;10.00;9.20;;;15.80;74.70;;;;;;10410123;28;20476;-63
2023/01/07 21:48:23;;;;;;;10.32;9.38;;;15.70;74.70;;;;;;10411309;28;20067;-61
2023/01/07 21:53:23;;;;;;;9.55;8.75;;;15.70;74.70;;;;;;10409693;28;20121;-60
2023/01/07 21:58:24;;;;;;;10.50;9.40;;;15.70;74.70;;;;;;10409668;28;20137;-60
2023/01/07 22:03:25;;;;;;;9.90;8.98;;;15.70;74.60;;;;;;10409730;28;20485;-61
2023/01/07 22:08:26;;;;;;;9.73;7.88;;;15.70;74.60;;;;;;10426067;28;20521;-62
2023/01/07 22:13:27;;;;;;;8.98;8.05;;;15.70;74.70;;;;;;10409159;28;20018;-62
2023/01/07 22:18:27;;;;;;;9.38;8.38;;;15.70;74.50;;;;;;10410327;28;20641;-62
2023/01/07 22:23:28;;;;;;;7.22;6.63;;;15.70;74.50;;;;;;10409736;28;20080;-61
2023/01/07 22:28:32;;;;;;;8.13;7.32;;;15.70;74.60;;;;;;10415635;28;20100;-62
2023/01/07 22:33:32;;;;;;;7.32;6.70;;;15.70;74.50;;;;;;10392210;28;20029;-61
2023/01/07 22:38:34;;;;;;;6.88;6.28;;;15.70;74.40;;;;;;10408646;28;20056;-62
2023/01/07 22:43:35;;;;;;;6.50;5.95;;;15.70;74.40;;;;;;10409634;28;20468;-61
2023/01/07 22:48:37;;;;;;;6.47;5.97;;;15.70;74.30;;;;;;10407997;28;20396;-61
2023/01/07 22:53:38;;;;;;;5.97;5.45;;;15.60;74.30;;;;;;10407903;28;20020;-62
2023/01/07 22:58:38;;;;;;;5.97;5.45;;;15.70;74.30;;;;;;10407182;28;20013;-62
2023/01/07 23:03:41;;;;;;;5.75;5.25;;;15.60;74.30;;;;;;10407464;28;20132;-61
2023/01/07 23:08:42;;;;;;;5.90;5.40;;;15.60;74.20;;;;;;10423642;28;20047;-61
2023/01/07 23:13:43;;;;;;;5.82;5.32;;;15.60;74.30;;;;;;10423440;28;20025;-61
2023/01/07 23:18:43;;;;;;;5.18;4.68;;;15.60;74.20;;;;;;10407871;28;20097;-61
2023/01/07 23:23:44;;;;;;;5.55;5.05;;;15.60;74.30;;;;;;10406609;28;20073;-61
2023/01/07 23:28:45;;;;;;;5.25;4.53;;;15.60;74.10;;;;;;10414539;28;20716;-61
2023/01/07 23:33:46;;;;;;;5.32;4.28;;;15.60;74.00;;;;;;10406353;28;20091;-62
2023/01/07 23:38:46;;;;;;;3.97;3.50;;;15.70;73.90;;;;;;10406580;28;20483;-62
2023/01/07 23:43:48;;;;;;;5.00;3.60;;;15.70;73.80;;;;;;10406795;28;20087;-62
2023/01/07 23:48:49;;;;;;;4.00;3.55;;;15.70;73.90;;;;;;10405547;28;20053;-62
2023/01/07 23:53:50;;;;;;;4.00;3.20;;;15.70;73.80;;;;;;10422165;28;20120;-61
2023/01/07 23:58:51;;;;;;;3.75;2.97;;;15.70;73.80;;;;;;10405207;28;20472;-62
